sensor_id;sensor_type;location;lat;lon;timestamp;P1;durP1;ratioP1;P2;durP2;ratioP2
49890;SDS011;35780;55.568;37.492;2022-08-20T00:00:15;29.27;;;19.50;;
49890;SDS011;35780;55.568;37.492;2022-08-20T00:02:44;30.98;;;19.25;;
49890;SDS011;35780;55.568;37.492;2022-08-20T00:05:14;34.90;;;19.88;;
49890;SDS011;35780;55.568;37.492;2022-08-20T00:07:41;33.38;;;18.65;;
49890;SDS011;35780;55.568;37.492;2022-08-20T00:10:07;30.42;;;17.45;;
49890;SDS011;35780;55.568;37.492;2022-08-20T00:12:34;39.33;;;19.02;;
49890;SDS011;35780;55.568;37.492;2022-08-20T00:15:00;31.42;;;17.80;;
49890;SDS011;35780;55.568;37.492;2022-08-20T00:17:26;37.05;;;16.73;;
49890;SDS011;35780;55.568;37.492;2022-08-20T00:19:57;37.53;;;14.38;;
49890;SDS011;35780;55.568;37.492;2022-08-20T00:22:23;36.75;;;16.27;;
49890;SDS011;35780;55.568;37.492;2022-08-20T00:24:52;23.65;;;15.48;;
49890;SDS011;35780;55.568;37.492;2022-08-20T00:27:17;24.85;;;12.63;;
49890;SDS011;35780;55.568;37.492;2022-08-20T00:29:43;23.52;;;14.00;;
49890;SDS011;35780;55.568;37.492;2022-08-20T00:32:08;26.20;;;14.68;;
49890;SDS011;35780;55.568;37.492;2022-08-20T00:34:34;32.28;;;13.57;;
49890;SDS011;35780;55.568;37.492;2022-08-20T00:36:59;21.80;;;13.30;;
49890;SDS011;35780;55.568;37.492;2022-08-20T00:39:25;30.17;;;14.13;;
49890;SDS011;35780;55.568;37.492;2022-08-20T00:41:51;20.23;;;12.80;;
49890;SDS011;35780;55.568;37.492;2022-08-20T00:44:17;24.50;;;15.05;;
49890;SDS011;35780;55.568;37.492;2022-08-20T00:46:46;21.65;;;12.18;;
49890;SDS011;35780;55.568;37.492;2022-08-20T00:49:16;37.13;;;13.55;;
49890;SDS011;35780;55.568;37.492;2022-08-20T00:52:31;22.85;;;13.18;;
49890;SDS011;35780;55.568;37.492;2022-08-20T00:57:11;24.02;;;14.93;;
49890;SDS011;35780;55.568;37.492;2022-08-20T00:59:49;39.03;;;15.33;;
49890;SDS011;35780;55.568;37.492;2022-08-20T01:02:16;23.85;;;14.80;;
49890;SDS011;35780;55.568;37.492;2022-08-20T01:04:42;19.98;;;13.68;;
49890;SDS011;35780;55.568;37.492;2022-08-20T01:07:27;26.02;;;13.93;;
49890;SDS011;35780;55.568;37.492;2022-08-20T01:09:58;27.83;;;13.90;;
49890;SDS011;35780;55.568;37.492;2022-08-20T01:12:25;25.48;;;14.95;;
49890;SDS011;35780;55.568;37.492;2022-08-20T01:14:51;23.02;;;14.38;;
49890;SDS011;35780;55.568;37.492;2022-08-20T01:17:20;27.08;;;14.43;;
49890;SDS011;35780;55.568;37.492;2022-08-20T01:19:50;21.13;;;14.38;;
49890;SDS011;35780;55.568;37.492;2022-08-20T01:22:22;27.85;;;14.15;;
49890;SDS011;35780;55.568;37.492;2022-08-20T01:25:09;27.52;;;13.32;;
49890;SDS011;35780;55.568;37.492;2022-08-20T01:27:41;21.50;;;12.98;;
49890;SDS011;35780;55.568;37.492;2022-08-20T01:30:07;23.70;;;14.38;;
49890;SDS011;35780;55.568;37.492;2022-08-20T01:32:33;28.08;;;15.38;;
49890;SDS011;35780;55.568;37.492;2022-08-20T01:34:58;27.85;;;13.15;;
49890;SDS011;35780;55.568;37.492;2022-08-20T01:37:24;23.88;;;13.57;;
49890;SDS011;35780;55.568;37.492;2022-08-20T01:39:49;30.25;;;15.73;;
49890;SDS011;35780;55.568;37.492;2022-08-20T01:45:16;30.33;;;15.75;;
49890;SDS011;35780;55.568;37.492;2022-08-20T01:47:41;24.55;;;13.65;;
49890;SDS011;35780;55.568;37.492;2022-08-20T01:50:17;29.77;;;15.10;;
49890;SDS011;35780;55.568;37.492;2022-08-20T01:52:50;22.38;;;12.35;;
49890;SDS011;35780;55.568;37.492;2022-08-20T01:55:22;23.00;;;12.93;;
49890;SDS011;35780;55.568;37.492;2022-08-20T01:57:48;20.13;;;12.65;;
49890;SDS011;35780;55.568;37.492;2022-08-20T02:00:14;21.98;;;12.98;;
49890;SDS011;35780;55.568;37.492;2022-08-20T02:02:43;34.83;;;13.45;;
49890;SDS011;35780;55.568;37.492;2022-08-20T02:05:08;21.23;;;12.50;;
49890;SDS011;35780;55.568;37.492;2022-08-20T02:07:36;17.33;;;11.32;;
49890;SDS011;35780;55.568;37.492;2022-08-20T02:10:03;22.27;;;12.73;;
49890;SDS011;35780;55.568;37.492;2022-08-20T02:12:30;14.30;;;10.23;;
49890;SDS011;35780;55.568;37.492;2022-08-20T02:14:56;16.73;;;10.13;;
49890;SDS011;35780;55.568;37.492;2022-08-20T02:17:22;17.48;;;10.02;;
49890;SDS011;35780;55.568;37.492;2022-08-20T02:19:59;25.05;;;9.60;;
49890;SDS011;35780;55.568;37.492;2022-08-20T02:25:09;18.35;;;9.20;;
49890;SDS011;35780;55.568;37.492;2022-08-20T02:27:37;23.13;;;11.27;;
49890;SDS011;35780;55.568;37.492;2022-08-20T02:30:05;18.75;;;9.20;;
49890;SDS011;35780;55.568;37.492;2022-08-20T02:32:35;12.05;;;7.60;;
49890;SDS011;35780;55.568;37.492;2022-08-20T02:35:03;14.88;;;8.77;;
49890;SDS011;35780;55.568;37.492;2022-08-20T02:37:31;11.52;;;6.90;;
49890;SDS011;35780;55.568;37.492;2022-08-20T02:39:57;13.10;;;8.25;;
49890;SDS011;35780;55.568;37.492;2022-08-20T02:42:23;20.20;;;9.07;;
49890;SDS011;35780;55.568;37.492;2022-08-20T02:44:48;18.95;;;9.10;;
49890;SDS011;35780;55.568;37.492;2022-08-20T02:47:14;21.85;;;9.73;;
49890;SDS011;35780;55.568;37.492;2022-08-20T02:49:41;16.13;;;9.75;;
49890;SDS011;35780;55.568;37.492;2022-08-20T02:52:06;17.48;;;8.98;;
49890;SDS011;35780;55.568;37.492;2022-08-20T02:54:32;23.55;;;13.23;;
49890;SDS011;35780;55.568;37.492;2022-08-20T02:56:58;24.25;;;12.40;;
49890;SDS011;35780;55.568;37.492;2022-08-20T02:59:23;29.92;;;14.65;;
49890;SDS011;35780;55.568;37.492;2022-08-20T03:01:49;22.50;;;12.48;;
49890;SDS011;35780;55.568;37.492;2022-08-20T03:04:16;20.27;;;11.80;;
49890;SDS011;35780;55.568;37.492;2022-08-20T03:06:41;23.30;;;13.98;;
49890;SDS011;35780;55.568;37.492;2022-08-20T03:09:07;26.27;;;15.13;;
49890;SDS011;35780;55.568;37.492;2022-08-20T03:11:33;33.22;;;17.65;;
49890;SDS011;35780;55.568;37.492;2022-08-20T03:13:59;25.48;;;17.38;;
49890;SDS011;35780;55.568;37.492;2022-08-20T03:16:24;34.55;;;19.30;;
49890;SDS011;35780;55.568;37.492;2022-08-20T03:18:50;35.00;;;22.00;;
49890;SDS011;35780;55.568;37.492;2022-08-20T03:21:15;44.00;;;27.10;;
49890;SDS011;35780;55.568;37.492;2022-08-20T03:23:41;41.17;;;30.70;;
49890;SDS011;35780;55.568;37.492;2022-08-20T03:26:08;56.70;;;35.95;;
49890;SDS011;35780;55.568;37.492;2022-08-20T03:28:35;57.00;;;37.72;;
49890;SDS011;35780;55.568;37.492;2022-08-20T03:31:01;51.33;;;32.85;;
49890;SDS011;35780;55.568;37.492;2022-08-20T03:33:27;61.75;;;39.35;;
49890;SDS011;35780;55.568;37.492;2022-08-20T03:35:52;59.70;;;39.47;;
49890;SDS011;35780;55.568;37.492;2022-08-20T03:38:20;53.60;;;38.88;;
49890;SDS011;35780;55.568;37.492;2022-08-20T03:40:47;58.47;;;40.00;;
49890;SDS011;35780;55.568;37.492;2022-08-20T03:43:13;62.25;;;39.72;;
49890;SDS011;35780;55.568;37.492;2022-08-20T03:45:40;58.45;;;35.50;;
49890;SDS011;35780;55.568;37.492;2022-08-20T03:48:08;57.40;;;38.05;;
49890;SDS011;35780;55.568;37.492;2022-08-20T03:50:35;53.97;;;35.05;;
49890;SDS011;35780;55.568;37.492;2022-08-20T03:53:01;71.03;;;40.05;;
49890;SDS011;35780;55.568;37.492;2022-08-20T03:55:28;53.55;;;32.30;;
49890;SDS011;35780;55.568;37.492;2022-08-20T03:57:56;49.25;;;32.65;;
49890;SDS011;35780;55.568;37.492;2022-08-20T04:00:27;58.00;;;31.80;;
49890;SDS011;35780;55.568;37.492;2022-08-20T04:02:55;60.10;;;31.17;;
49890;SDS011;35780;55.568;37.492;2022-08-20T04:05:22;49.25;;;30.33;;
49890;SDS011;35780;55.568;37.492;2022-08-20T04:07:48;48.30;;;29.33;;
49890;SDS011;35780;55.568;37.492;2022-08-20T04:10:15;36.28;;;21.33;;
49890;SDS011;35780;55.568;37.492;2022-08-20T04:12:40;46.78;;;26.75;;
49890;SDS011;35780;55.568;37.492;2022-08-20T04:15:10;46.38;;;27.95;;
49890;SDS011;35780;55.568;37.492;2022-08-20T04:17:37;42.05;;;27.10;;
49890;SDS011;35780;55.568;37.492;2022-08-20T04:20:07;48.67;;;28.67;;
49890;SDS011;35780;55.568;37.492;2022-08-20T04:22:33;39.65;;;26.20;;
49890;SDS011;35780;55.568;37.492;2022-08-20T04:24:59;45.88;;;26.25;;
49890;SDS011;35780;55.568;37.492;2022-08-20T04:27:25;46.05;;;27.08;;
49890;SDS011;35780;55.568;37.492;2022-08-20T04:29:50;42.63;;;25.77;;
49890;SDS011;35780;55.568;37.492;2022-08-20T04:32:16;42.42;;;24.05;;
49890;SDS011;35780;55.568;37.492;2022-08-20T04:34:42;47.60;;;27.05;;
49890;SDS011;35780;55.568;37.492;2022-08-20T04:37:08;42.72;;;24.02;;
49890;SDS011;35780;55.568;37.492;2022-08-20T04:39:35;40.83;;;26.40;;
49890;SDS011;35780;55.568;37.492;2022-08-20T04:42:01;41.22;;;25.42;;
49890;SDS011;35780;55.568;37.492;2022-08-20T04:44:26;47.45;;;26.63;;
49890;SDS011;35780;55.568;37.492;2022-08-20T04:46:52;41.95;;;26.25;;
49890;SDS011;35780;55.568;37.492;2022-08-20T04:49:18;39.30;;;21.75;;
49890;SDS011;35780;55.568;37.492;2022-08-20T04:51:50;45.38;;;26.48;;
49890;SDS011;35780;55.568;37.492;2022-08-20T04:54:16;35.15;;;23.63;;
49890;SDS011;35780;55.568;37.492;2022-08-20T04:56:42;42.10;;;24.30;;
49890;SDS011;35780;55.568;37.492;2022-08-20T04:59:08;34.80;;;21.77;;
49890;SDS011;35780;55.568;37.492;2022-08-20T05:01:35;37.05;;;22.50;;
49890;SDS011;35780;55.568;37.492;2022-08-20T05:04:00;35.30;;;21.98;;
49890;SDS011;35780;55.568;37.492;2022-08-20T05:06:28;33.40;;;20.40;;
49890;SDS011;35780;55.568;37.492;2022-08-20T05:08:56;41.42;;;21.13;;
49890;SDS011;35780;55.568;37.492;2022-08-20T05:11:23;31.20;;;19.00;;
49890;SDS011;35780;55.568;37.492;2022-08-20T05:13:49;37.70;;;18.42;;
49890;SDS011;35780;55.568;37.492;2022-08-20T05:16:17;36.35;;;20.02;;
49890;SDS011;35780;55.568;37.492;2022-08-20T05:18:43;31.00;;;18.33;;
49890;SDS011;35780;55.568;37.492;2022-08-20T05:21:10;38.30;;;19.50;;
49890;SDS011;35780;55.568;37.492;2022-08-20T05:23:37;43.83;;;18.20;;
49890;SDS011;35780;55.568;37.492;2022-08-20T05:26:07;37.03;;;19.95;;
49890;SDS011;35780;55.568;37.492;2022-08-20T05:28:34;34.70;;;18.38;;
49890;SDS011;35780;55.568;37.492;2022-08-20T05:31:02;45.80;;;20.02;;
49890;SDS011;35780;55.568;37.492;2022-08-20T05:33:31;39.10;;;19.17;;
49890;SDS011;35780;55.568;37.492;2022-08-20T05:35:56;33.80;;;18.77;;
49890;SDS011;35780;55.568;37.492;2022-08-20T05:38:23;28.05;;;16.88;;
49890;SDS011;35780;55.568;37.492;2022-08-20T05:40:51;30.80;;;18.05;;
49890;SDS011;35780;55.568;37.492;2022-08-20T05:43:17;40.97;;;20.05;;
49890;SDS011;35780;55.568;37.492;2022-08-20T05:45:44;34.55;;;19.60;;
49890;SDS011;35780;55.568;37.492;2022-08-20T05:48:17;40.85;;;19.67;;
49890;SDS011;35780;55.568;37.492;2022-08-20T05:50:45;41.65;;;25.38;;
49890;SDS011;35780;55.568;37.492;2022-08-20T05:53:13;27.92;;;17.63;;
49890;SDS011;35780;55.568;37.492;2022-08-20T05:55:39;38.72;;;18.65;;
49890;SDS011;35780;55.568;37.492;2022-08-20T05:58:05;28.15;;;18.80;;
49890;SDS011;35780;55.568;37.492;2022-08-20T06:00:32;31.33;;;17.98;;
49890;SDS011;35780;55.568;37.492;2022-08-20T06:02:59;35.53;;;19.55;;
49890;SDS011;35780;55.568;37.492;2022-08-20T06:05:43;32.47;;;20.35;;
49890;SDS011;35780;55.568;37.492;2022-08-20T06:08:09;37.15;;;20.92;;
49890;SDS011;35780;55.568;37.492;2022-08-20T06:10:36;29.23;;;16.13;;
49890;SDS011;35780;55.568;37.492;2022-08-20T06:13:02;28.55;;;18.42;;
49890;SDS011;35780;55.568;37.492;2022-08-20T06:15:28;29.20;;;19.83;;
49890;SDS011;35780;55.568;37.492;2022-08-20T06:17:55;29.67;;;17.95;;
49890;SDS011;35780;55.568;37.492;2022-08-20T06:20:21;29.05;;;15.27;;
49890;SDS011;35780;55.568;37.492;2022-08-20T06:22:47;27.17;;;13.35;;
49890;SDS011;35780;55.568;37.492;2022-08-20T06:25:12;30.98;;;16.92;;
49890;SDS011;35780;55.568;37.492;2022-08-20T06:27:39;25.45;;;15.38;;
49890;SDS011;35780;55.568;37.492;2022-08-20T06:30:08;30.90;;;16.83;;
49890;SDS011;35780;55.568;37.492;2022-08-20T06:32:35;25.98;;;15.27;;
49890;SDS011;35780;55.568;37.492;2022-08-20T06:35:02;24.58;;;14.73;;
49890;SDS011;35780;55.568;37.492;2022-08-20T06:37:30;31.10;;;16.80;;
49890;SDS011;35780;55.568;37.492;2022-08-20T06:40:00;37.17;;;16.80;;
49890;SDS011;35780;55.568;37.492;2022-08-20T06:42:31;26.45;;;14.30;;
49890;SDS011;35780;55.568;37.492;2022-08-20T06:44:57;26.25;;;14.70;;
49890;SDS011;35780;55.568;37.492;2022-08-20T06:47:24;28.90;;;14.80;;
49890;SDS011;35780;55.568;37.492;2022-08-20T06:49:50;28.52;;;14.50;;
49890;SDS011;35780;55.568;37.492;2022-08-20T06:52:16;27.70;;;14.02;;
49890;SDS011;35780;55.568;37.492;2022-08-20T06:54:44;23.77;;;14.65;;
49890;SDS011;35780;55.568;37.492;2022-08-20T06:57:10;26.13;;;13.65;;
49890;SDS011;35780;55.568;37.492;2022-08-20T06:59:37;27.42;;;14.52;;
49890;SDS011;35780;55.568;37.492;2022-08-20T07:02:02;20.77;;;13.13;;
49890;SDS011;35780;55.568;37.492;2022-08-20T07:04:28;20.92;;;12.65;;
49890;SDS011;35780;55.568;37.492;2022-08-20T07:06:54;19.50;;;12.25;;
49890;SDS011;35780;55.568;37.492;2022-08-20T07:09:22;24.15;;;12.77;;
49890;SDS011;35780;55.568;37.492;2022-08-20T07:11:48;23.80;;;12.32;;
49890;SDS011;35780;55.568;37.492;2022-08-20T07:14:15;26.00;;;12.30;;
49890;SDS011;35780;55.568;37.492;2022-08-20T07:16:41;19.23;;;11.07;;
49890;SDS011;35780;55.568;37.492;2022-08-20T07:19:08;22.80;;;11.23;;
49890;SDS011;35780;55.568;37.492;2022-08-20T07:21:33;20.48;;;11.18;;
49890;SDS011;35780;55.568;37.492;2022-08-20T07:23:59;14.40;;;9.80;;
49890;SDS011;35780;55.568;37.492;2022-08-20T07:26:25;25.70;;;11.05;;
49890;SDS011;35780;55.568;37.492;2022-08-20T07:28:51;29.70;;;12.63;;
49890;SDS011;35780;55.568;37.492;2022-08-20T07:31:17;29.77;;;11.23;;
49890;SDS011;35780;55.568;37.492;2022-08-20T07:34:01;16.00;;;9.18;;
49890;SDS011;35780;55.568;37.492;2022-08-20T07:36:27;23.42;;;9.18;;
49890;SDS011;35780;55.568;37.492;2022-08-20T07:38:53;29.08;;;10.40;;
49890;SDS011;35780;55.568;37.492;2022-08-20T07:41:19;18.77;;;9.88;;
49890;SDS011;35780;55.568;37.492;2022-08-20T07:43:45;17.23;;;9.30;;
49890;SDS011;35780;55.568;37.492;2022-08-20T07:46:16;24.50;;;10.02;;
49890;SDS011;35780;55.568;37.492;2022-08-20T07:48:43;17.58;;;8.85;;
49890;SDS011;35780;55.568;37.492;2022-08-20T07:51:12;25.05;;;9.95;;
49890;SDS011;35780;55.568;37.492;2022-08-20T07:53:41;18.45;;;9.13;;
49890;SDS011;35780;55.568;37.492;2022-08-20T07:56:08;19.73;;;9.52;;
49890;SDS011;35780;55.568;37.492;2022-08-20T07:58:37;21.92;;;11.32;;
49890;SDS011;35780;55.568;37.492;2022-08-20T08:01:05;22.35;;;10.05;;
49890;SDS011;35780;55.568;37.492;2022-08-20T08:03:31;17.80;;;9.52;;
49890;SDS011;35780;55.568;37.492;2022-08-20T08:05:57;24.17;;;9.77;;
49890;SDS011;35780;55.568;37.492;2022-08-20T08:08:24;21.33;;;9.80;;
49890;SDS011;35780;55.568;37.492;2022-08-20T08:10:51;20.98;;;9.05;;
49890;SDS011;35780;55.568;37.492;2022-08-20T08:13:20;27.38;;;9.38;;
49890;SDS011;35780;55.568;37.492;2022-08-20T08:15:50;21.63;;;10.13;;
49890;SDS011;35780;55.568;37.492;2022-08-20T08:18:18;19.13;;;10.07;;
49890;SDS011;35780;55.568;37.492;2022-08-20T08:20:46;19.38;;;10.48;;
49890;SDS011;35780;55.568;37.492;2022-08-20T08:23:12;20.60;;;9.60;;
49890;SDS011;35780;55.568;37.492;2022-08-20T08:25:38;18.90;;;11.43;;
49890;SDS011;35780;55.568;37.492;2022-08-20T08:28:06;23.65;;;9.02;;
49890;SDS011;35780;55.568;37.492;2022-08-20T08:30:39;18.38;;;9.95;;
49890;SDS011;35780;55.568;37.492;2022-08-20T08:33:06;20.73;;;9.77;;
49890;SDS011;35780;55.568;37.492;2022-08-20T08:35:51;19.10;;;10.45;;
49890;SDS011;35780;55.568;37.492;2022-08-20T08:38:16;21.67;;;11.15;;
49890;SDS011;35780;55.568;37.492;2022-08-20T08:40:42;21.23;;;9.95;;
49890;SDS011;35780;55.568;37.492;2022-08-20T08:43:08;23.55;;;10.30;;
49890;SDS011;35780;55.568;37.492;2022-08-20T08:45:41;19.17;;;10.23;;
49890;SDS011;35780;55.568;37.492;2022-08-20T08:48:10;26.33;;;10.75;;
49890;SDS011;35780;55.568;37.492;2022-08-20T08:50:38;21.60;;;10.07;;
49890;SDS011;35780;55.568;37.492;2022-08-20T08:53:04;18.27;;;10.70;;
49890;SDS011;35780;55.568;37.492;2022-08-20T08:55:30;17.15;;;10.27;;
49890;SDS011;35780;55.568;37.492;2022-08-20T08:57:57;24.08;;;10.27;;
49890;SDS011;35780;55.568;37.492;2022-08-20T09:00:25;20.92;;;9.80;;
49890;SDS011;35780;55.568;37.492;2022-08-20T09:05:33;22.70;;;11.27;;
49890;SDS011;35780;55.568;37.492;2022-08-20T09:08:04;17.98;;;10.65;;
49890;SDS011;35780;55.568;37.492;2022-08-20T09:10:31;22.55;;;10.98;;
49890;SDS011;35780;55.568;37.492;2022-08-20T09:12:57;20.63;;;10.63;;
49890;SDS011;35780;55.568;37.492;2022-08-20T09:15:25;27.35;;;12.18;;
49890;SDS011;35780;55.568;37.492;2022-08-20T09:17:51;20.20;;;11.48;;
49890;SDS011;35780;55.568;37.492;2022-08-20T09:20:17;22.98;;;11.23;;
49890;SDS011;35780;55.568;37.492;2022-08-20T09:22:42;21.42;;;11.60;;
49890;SDS011;35780;55.568;37.492;2022-08-20T09:25:08;19.98;;;10.43;;
49890;SDS011;35780;55.568;37.492;2022-08-20T09:27:34;23.25;;;11.93;;
49890;SDS011;35780;55.568;37.492;2022-08-20T09:30:00;21.85;;;11.85;;
49890;SDS011;35780;55.568;37.492;2022-08-20T09:32:25;20.60;;;11.88;;
49890;SDS011;35780;55.568;37.492;2022-08-20T09:34:52;20.83;;;10.80;;
49890;SDS011;35780;55.568;37.492;2022-08-20T09:37:27;26.20;;;11.32;;
49890;SDS011;35780;55.568;37.492;2022-08-20T09:39:55;29.23;;;13.77;;
49890;SDS011;35780;55.568;37.492;2022-08-20T09:42:22;26.02;;;14.77;;
49890;SDS011;35780;55.568;37.492;2022-08-20T09:44:49;29.33;;;15.77;;
49890;SDS011;35780;55.568;37.492;2022-08-20T09:47:14;32.08;;;15.30;;
49890;SDS011;35780;55.568;37.492;2022-08-20T09:49:41;28.13;;;14.00;;
49890;SDS011;35780;55.568;37.492;2022-08-20T09:52:08;27.10;;;15.63;;
49890;SDS011;35780;55.568;37.492;2022-08-20T09:54:36;32.33;;;16.90;;
49890;SDS011;35780;55.568;37.492;2022-08-20T09:57:05;28.83;;;17.38;;
49890;SDS011;35780;55.568;37.492;2022-08-20T09:59:32;32.65;;;16.58;;
49890;SDS011;35780;55.568;37.492;2022-08-20T10:01:58;32.58;;;19.85;;
49890;SDS011;35780;55.568;37.492;2022-08-20T10:04:23;27.02;;;18.77;;
49890;SDS011;35780;55.568;37.492;2022-08-20T10:06:49;34.50;;;17.30;;
49890;SDS011;35780;55.568;37.492;2022-08-20T10:09:15;37.55;;;17.60;;
49890;SDS011;35780;55.568;37.492;2022-08-20T10:11:40;29.17;;;17.00;;
49890;SDS011;35780;55.568;37.492;2022-08-20T10:14:06;31.85;;;16.85;;
49890;SDS011;35780;55.568;37.492;2022-08-20T10:16:33;25.95;;;16.00;;
49890;SDS011;35780;55.568;37.492;2022-08-20T10:18:59;31.35;;;16.83;;
49890;SDS011;35780;55.568;37.492;2022-08-20T10:21:25;28.38;;;15.88;;
49890;SDS011;35780;55.568;37.492;2022-08-20T10:23:51;30.98;;;18.60;;
49890;SDS011;35780;55.568;37.492;2022-08-20T10:26:16;32.35;;;18.67;;
49890;SDS011;35780;55.568;37.492;2022-08-20T10:28:42;39.50;;;21.02;;
49890;SDS011;35780;55.568;37.492;2022-08-20T10:31:11;35.80;;;18.73;;
49890;SDS011;35780;55.568;37.492;2022-08-20T10:33:37;29.45;;;18.20;;
49890;SDS011;35780;55.568;37.492;2022-08-20T10:36:06;28.33;;;18.75;;
49890;SDS011;35780;55.568;37.492;2022-08-20T10:38:32;36.38;;;19.48;;
49890;SDS011;35780;55.568;37.492;2022-08-20T10:40:58;34.75;;;17.92;;
49890;SDS011;35780;55.568;37.492;2022-08-20T10:43:23;29.13;;;17.10;;
49890;SDS011;35780;55.568;37.492;2022-08-20T10:45:49;27.88;;;17.05;;
49890;SDS011;35780;55.568;37.492;2022-08-20T10:48:15;28.10;;;16.83;;
49890;SDS011;35780;55.568;37.492;2022-08-20T10:50:41;28.20;;;17.92;;
49890;SDS011;35780;55.568;37.492;2022-08-20T10:53:06;31.05;;;18.42;;
49890;SDS011;35780;55.568;37.492;2022-08-20T10:55:32;25.52;;;17.65;;
49890;SDS011;35780;55.568;37.492;2022-08-20T10:57:57;28.88;;;16.05;;
49890;SDS011;35780;55.568;37.492;2022-08-20T11:00:23;33.45;;;16.77;;
49890;SDS011;35780;55.568;37.492;2022-08-20T11:02:48;22.92;;;15.52;;
49890;SDS011;35780;55.568;37.492;2022-08-20T11:05:14;28.00;;;15.93;;
49890;SDS011;35780;55.568;37.492;2022-08-20T11:07:41;26.92;;;14.45;;
49890;SDS011;35780;55.568;37.492;2022-08-20T11:10:08;23.98;;;15.15;;
49890;SDS011;35780;55.568;37.492;2022-08-20T11:12:34;32.05;;;14.30;;
49890;SDS011;35780;55.568;37.492;2022-08-20T11:14:59;25.00;;;14.05;;
49890;SDS011;35780;55.568;37.492;2022-08-20T11:17:26;22.77;;;11.93;;
49890;SDS011;35780;55.568;37.492;2022-08-20T11:19:54;25.92;;;13.30;;
49890;SDS011;35780;55.568;37.492;2022-08-20T11:22:20;20.27;;;13.02;;
49890;SDS011;35780;55.568;37.492;2022-08-20T11:24:46;25.98;;;12.93;;
49890;SDS011;35780;55.568;37.492;2022-08-20T11:27:14;19.58;;;11.73;;
49890;SDS011;35780;55.568;37.492;2022-08-20T11:29:44;17.00;;;12.35;;
49890;SDS011;35780;55.568;37.492;2022-08-20T11:32:09;21.98;;;13.43;;
49890;SDS011;35780;55.568;37.492;2022-08-20T11:34:35;23.83;;;11.93;;
49890;SDS011;35780;55.568;37.492;2022-08-20T11:37:01;24.80;;;13.88;;
49890;SDS011;35780;55.568;37.492;2022-08-20T11:39:26;22.52;;;12.57;;
49890;SDS011;35780;55.568;37.492;2022-08-20T11:41:52;23.13;;;12.70;;
49890;SDS011;35780;55.568;37.492;2022-08-20T11:44:18;21.05;;;11.50;;
49890;SDS011;35780;55.568;37.492;2022-08-20T11:46:43;17.98;;;10.23;;
49890;SDS011;35780;55.568;37.492;2022-08-20T11:49:09;15.90;;;8.90;;
49890;SDS011;35780;55.568;37.492;2022-08-20T11:51:34;14.43;;;8.68;;
49890;SDS011;35780;55.568;37.492;2022-08-20T11:54:02;20.60;;;10.35;;
49890;SDS011;35780;55.568;37.492;2022-08-20T11:56:28;22.92;;;9.20;;
49890;SDS011;35780;55.568;37.492;2022-08-20T11:58:54;16.70;;;8.93;;
49890;SDS011;35780;55.568;37.492;2022-08-20T12:01:19;13.90;;;8.05;;
49890;SDS011;35780;55.568;37.492;2022-08-20T12:03:45;12.25;;;7.45;;
49890;SDS011;35780;55.568;37.492;2022-08-20T12:06:10;12.13;;;6.45;;
49890;SDS011;35780;55.568;37.492;2022-08-20T12:08:36;14.20;;;7.25;;
49890;SDS011;35780;55.568;37.492;2022-08-20T12:11:03;16.63;;;8.00;;
49890;SDS011;35780;55.568;37.492;2022-08-20T12:13:30;18.33;;;7.85;;
49890;SDS011;35780;55.568;37.492;2022-08-20T12:15:58;16.30;;;8.40;;
49890;SDS011;35780;55.568;37.492;2022-08-20T12:18:24;23.70;;;12.43;;
49890;SDS011;35780;55.568;37.492;2022-08-20T12:20:50;18.88;;;9.20;;
49890;SDS011;35780;55.568;37.492;2022-08-20T12:23:15;17.67;;;8.98;;
49890;SDS011;35780;55.568;37.492;2022-08-20T12:25:41;12.90;;;7.35;;
49890;SDS011;35780;55.568;37.492;2022-08-20T12:28:07;10.80;;;7.55;;
49890;SDS011;35780;55.568;37.492;2022-08-20T12:30:32;12.68;;;6.57;;
49890;SDS011;35780;55.568;37.492;2022-08-20T12:32:58;12.70;;;7.53;;
49890;SDS011;35780;55.568;37.492;2022-08-20T12:35:24;16.05;;;6.82;;
49890;SDS011;35780;55.568;37.492;2022-08-20T12:37:49;10.75;;;6.85;;
49890;SDS011;35780;55.568;37.492;2022-08-20T12:40:16;13.52;;;7.05;;
49890;SDS011;35780;55.568;37.492;2022-08-20T12:42:46;16.47;;;7.30;;
49890;SDS011;35780;55.568;37.492;2022-08-20T12:45:13;12.95;;;6.57;;
49890;SDS011;35780;55.568;37.492;2022-08-20T12:47:39;15.50;;;6.95;;
49890;SDS011;35780;55.568;37.492;2022-08-20T12:50:08;11.43;;;6.18;;
49890;SDS011;35780;55.568;37.492;2022-08-20T12:52:35;10.95;;;6.28;;
49890;SDS011;35780;55.568;37.492;2022-08-20T12:55:01;19.83;;;6.35;;
49890;SDS011;35780;55.568;37.492;2022-08-20T12:57:30;11.50;;;6.25;;
49890;SDS011;35780;55.568;37.492;2022-08-20T13:00:07;9.85;;;5.35;;
49890;SDS011;35780;55.568;37.492;2022-08-20T13:02:36;11.43;;;5.72;;
49890;SDS011;35780;55.568;37.492;2022-08-20T13:05:03;14.15;;;5.60;;
49890;SDS011;35780;55.568;37.492;2022-08-20T13:07:29;12.00;;;5.65;;
49890;SDS011;35780;55.568;37.492;2022-08-20T13:09:55;14.32;;;6.00;;
49890;SDS011;35780;55.568;37.492;2022-08-20T13:12:22;11.70;;;5.90;;
49890;SDS011;35780;55.568;37.492;2022-08-20T13:14:48;14.32;;;5.53;;
49890;SDS011;35780;55.568;37.492;2022-08-20T13:17:15;20.15;;;5.63;;
49890;SDS011;35780;55.568;37.492;2022-08-20T13:19:41;14.80;;;7.32;;
49890;SDS011;35780;55.568;37.492;2022-08-20T13:22:09;11.63;;;6.88;;
49890;SDS011;35780;55.568;37.492;2022-08-20T13:24:35;18.23;;;7.07;;
49890;SDS011;35780;55.568;37.492;2022-08-20T13:27:09;12.88;;;6.40;;
49890;SDS011;35780;55.568;37.492;2022-08-20T13:29:49;17.08;;;6.25;;
49890;SDS011;35780;55.568;37.492;2022-08-20T13:32:16;18.15;;;7.38;;
49890;SDS011;35780;55.568;37.492;2022-08-20T13:34:42;19.75;;;6.93;;
49890;SDS011;35780;55.568;37.492;2022-08-20T13:39:38;16.17;;;7.80;;
49890;SDS011;35780;55.568;37.492;2022-08-20T13:42:05;13.52;;;7.43;;
49890;SDS011;35780;55.568;37.492;2022-08-20T13:44:30;20.25;;;8.07;;
49890;SDS011;35780;55.568;37.492;2022-08-20T13:46:56;15.48;;;7.97;;
49890;SDS011;35780;55.568;37.492;2022-08-20T13:49:22;22.77;;;9.18;;
49890;SDS011;35780;55.568;37.492;2022-08-20T13:51:47;15.30;;;9.93;;
49890;SDS011;35780;55.568;37.492;2022-08-20T13:54:13;18.15;;;9.52;;
49890;SDS011;35780;55.568;37.492;2022-08-20T13:56:38;17.83;;;10.25;;
49890;SDS011;35780;55.568;37.492;2022-08-20T13:59:04;16.70;;;10.45;;
49890;SDS011;35780;55.568;37.492;2022-08-20T14:01:29;21.75;;;10.98;;
49890;SDS011;35780;55.568;37.492;2022-08-20T14:03:55;17.23;;;10.18;;
49890;SDS011;35780;55.568;37.492;2022-08-20T14:06:20;16.92;;;10.52;;
49890;SDS011;35780;55.568;37.492;2022-08-20T14:08:46;17.65;;;9.75;;
49890;SDS011;35780;55.568;37.492;2022-08-20T14:11:12;18.25;;;11.45;;
49890;SDS011;35780;55.568;37.492;2022-08-20T14:13:37;20.38;;;10.73;;
49890;SDS011;35780;55.568;37.492;2022-08-20T14:16:03;18.67;;;11.50;;
49890;SDS011;35780;55.568;37.492;2022-08-20T14:18:28;20.15;;;9.95;;
49890;SDS011;35780;55.568;37.492;2022-08-20T14:20:55;19.13;;;11.50;;
49890;SDS011;35780;55.568;37.492;2022-08-20T14:23:20;19.00;;;10.60;;